Buoy 46770

sailwx.info

Track history (hours):
 
Tides and Currents Weather Stations Pressure Air Temp Water Temp Dewpoint Dewpoint Depression Visibility Wind Speed Wind Dir Waves Ship Positions

Drifting buoy 46770

Last reported at 2014-Oct-30 20:30 UTC. Time now 2014-Oct-30 22:56 UTC.
Position N 53°37' E 170°26'.

Barometer 992.0 mb
Water temperature 7.9 ° C

Date/timePositionNaut miles runAvg speedWind from/ knotsBaromVisibWave heightAir tempDewpointWater temp
2014-Oct-30 20:30N 53°37' E 170°26'1 0.2 992.0 7.9
2014-Oct-30 17:30N 53°37' E 170°26'0 0.0 993.2 7.9
2014-Oct-30 16:30N 53°37' E 170°26'0 0.4 993.5 7.9
2014-Oct-30 15:30N 53°37' E 170°27'1 0.5 993.9 7.9
2014-Oct-30 13:30N 53°38' E 170°25'1 0.1 995.4 7.9
2014-Oct-30 08:30N 53°38' E 170°24'1 1.0 997.5 7.9
2014-Oct-30 07:30N 53°37' E 170°22'1 0.4 998.1 7.9
2014-Oct-30 03:30N 53°36' E 170°22'1 0.5 999.9 8.0
2014-Oct-30 01:30N 53°35' E 170°22'0 0.0 1001.9 8.0
2014-Oct-29 23:30N 53°35' E 170°22'1 0.6 1004.2 8.0
2014-Oct-29 21:30N 53°35' E 170°20'1 0.3 1005.4 8.0
2014-Oct-29 19:30N 53°35' E 170°19'1 0.4 1006.4 8.0
2014-Oct-29 16:30N 53°34' E 170°18'0 0.2 1006.5 8.0
2014-Oct-29 15:30N 53°34' E 170°18'0 0.0 1006.5 8.0
2014-Oct-29 08:30N 53°33' E 170°18'1 0.5 1005.2 8.0
2014-Oct-29 05:30N 53°33' E 170°16'3 1.3 1003.6 8.0
2014-Oct-29 03:30N 53°32' E 170°12'0 0.1 1002.4 8.0
2014-Oct-29 01:30N 53°31' E 170°12'3 0.7 1003.5 8.0
2014-Oct-28 21:30N 53°29' E 170°13'1 0.3 1009.8 8.0
2014-Oct-28 18:30N 53°28' E 170°14'2 1.7 1014.8 8.0
2014-Oct-28 17:30N 53°28' E 170°11'0 0.1 1015.8 8.0
2014-Oct-28 13:30N 53°28' E 170°10'3 0.7 1020.5 8.0
2014-Oct-28 08:30N 53°25' E 170°09'1 0.2 1025.2 8.0
2014-Oct-28 04:30N 53°24' E 170°09'1 0.4 1026.9 8.0
2014-Oct-28 02:30N 53°24' E 170°08'1 0.8 1026.6 8.0
2014-Oct-28 01:30N 53°23' E 170°07'1 0.4 1027.1 8.0
2014-Oct-27 23:30N 53°23' E 170°05'0 0.4 1027.7 8.0
2014-Oct-27 22:30N 53°23' E 170°06'3 1.0 1027.5 8.0
2014-Oct-27 19:30N 53°20' E 170°03'0 0.0 1026.7 8.0
2014-Oct-27 18:30N 53°20' E 170°03'0 0.3 1026.5 8.0
2014-Oct-27 17:30N 53°20' E 170°04'1 0.3 1026.3 8.0
2014-Oct-27 15:30N 53°19' E 170°04'0 0.0 1025.7 8.0
2014-Oct-27 13:30N 53°19' E 170°04'1 1.2 1025.3 8.0
2014-Oct-27 12:30N 53°18' E 170°03'0 0.0 1024.8 8.0
2014-Oct-27 10:30N 53°18' E 170°03'0 0.1 1024.1 8.0
2014-Oct-27 09:30N 53°18' E 170°03'2 0.8 1023.3 8.0
2014-Oct-27 06:30N 53°16' E 170°03'0 0.0 1020.5 8.0
2014-Oct-27 04:30N 53°16' E 170°03'0 0.1 1018.1 8.1
2014-Oct-26 22:30N 53°16' E 170°03'0 0.1 1013.1 8.1
2014-Oct-26 19:30N 53°16' E 170°03'1 0.5 1010.5 8.2
2014-Oct-26 17:30N 53°15' E 170°02'0 0.3 1010.5 8.2
2014-Oct-26 16:30N 53°15' E 170°02'1 0.9 1010.2 8.2
2014-Oct-26 15:30N 53°15' E 170°00'0 0.1 1010.2 8.2
2014-Oct-26 14:30N 53°15' E 170°00'3 0.9 1010.1 8.2
2014-Oct-26 10:30N 53°11' E 170°01'1 0.3 1009.6 8.3
2014-Oct-26 07:30N 53°11' E 170°03'0 0.1 1007.3 8.3
2014-Oct-26 03:30N 53°11' E 170°02'0 0.4 1001.4 8.4
2014-Oct-26 02:30N 53°11' E 170°03'1 0.9 1002.3 8.4
2014-Oct-26 01:30N 53°10' E 170°02'2 2.0 1003.7 8.4
2014-Oct-26 00:30N 53°09' E 169°59'2 0.4 1005.0 8.4
2014-Oct-25 19:30N 53°08' E 169°57'0 0.0 1009.8 8.4
2014-Oct-25 18:30N 53°08' E 169°57'1 0.9 1010.4 8.4
2014-Oct-25 17:30N 53°07' E 169°57'1 1.0 1011.2 8.4
2014-Oct-25 16:30N 53°06' E 169°58'1 0.3 1011.6 8.4
2014-Oct-25 12:30N 53°05' E 169°59'0 0.1 1014.1 8.4
2014-Oct-25 09:30N 53°05' E 169°59'0 0.3 1014.8 8.4
2014-Oct-25 08:30N 53°05' E 169°58'2 0.5 1014.8 8.4
2014-Oct-25 04:30N 53°03' E 169°57'2 1.0 1013.9 8.5
2014-Oct-25 02:30N 53°01' E 169°57'1 0.1 1013.4 8.5
2014-Oct-24 18:30N 53°01' E 169°59'0 0.0 1012.7 8.6
2014-Oct-24 17:30N 53°01' E 169°59'2 2.4 1012.6 8.6
2014-Oct-24 16:30N 52°58' E 169°58'0 0.0 1012.5 8.6
2014-Oct-24 14:30N 52°58' E 169°58'2 0.4 1013.3 8.6
2014-Oct-24 09:30N 52°58' E 170°02'0 0.0 1014.2 8.6
2014-Oct-24 08:30N 52°58' E 170°02'1 0.2 1014.3 8.5
2014-Oct-24 04:30N 52°58' E 170°00'1 0.5 1014.8 8.5
2014-Oct-24 02:30N 52°57' E 169°60'0 0.0 1015.2 8.6
2014-Oct-24 01:30N 52°57' E 169°60'1 0.4 1015.5 8.6
2014-Oct-23 22:30N 52°56' E 170°01'1 0.6 1016.3 8.6
2014-Oct-23 20:30N 52°55' E 170°02'0 0.1 1016.3 8.5
2014-Oct-23 15:30N 52°55' E 170°03'1 1.3 1015.7 8.6
2014-Oct-23 14:30N 52°55' E 170°05'1 0.6 1015.7 8.6
2014-Oct-23 13:30N 52°55' E 170°04'1 0.2 1015.6 8.6
2014-Oct-23 10:30N 52°55' E 170°04'4 2.0 1015.0 8.6
2014-Oct-23 08:30N 52°51' E 170°07'0 0.0 1014.1 8.7
2014-Oct-23 05:30N 52°51' E 170°07'1 0.3 1012.6 8.7
2014-Oct-23 01:30N 52°51' E 170°09'1 0.3 1010.8 8.7
2014-Oct-22 23:30N 52°52' E 170°09'0 0.0 1009.7 8.8
2014-Oct-22 22:30N 52°52' E 170°09'6 0.9 1009.1 8.8
2014-Oct-22 15:30N 52°46' E 170°07'0 0.0 1009.3 8.9
2014-Oct-22 13:30N 52°46' E 170°07'0 0.0 1011.2 8.9
2014-Oct-22 09:30N 52°46' E 170°07'0 0.0 1014.9 9.0
2014-Oct-22 08:30N 52°46' E 170°07'2 0.4 1015.1 9.0
2014-Oct-22 03:30N 52°44' E 170°06'1 0.4 1017.5 9.0
2014-Oct-22 00:30N 52°43' E 170°07'2 0.5 1018.6 9.0
2014-Oct-21 20:30N 52°41' E 170°09'1 0.2 1019.0 9.0
2014-Oct-21 17:30N 52°42' E 170°10'2 0.9 1019.7 9.0
2014-Oct-21 15:30N 52°42' E 170°07'3 0.6 1020.9 9.0
2014-Oct-21 09:30N 52°39' E 170°07'1 0.7 1023.3 9.0
2014-Oct-21 08:30N 52°38' E 170°08'1 0.3 1023.5 9.0
2014-Oct-21 05:30N 52°37' E 170°10'1 0.3 1023.0 9.2
2014-Oct-21 01:30N 52°38' E 170°11'0 0.0 1022.8 9.2
2014-Oct-20 23:30N 52°38' E 170°10'1 0.4 1022.7 9.0
2014-Oct-20 21:30N 52°38' E 170°10'   1022.1 9.0
Track history (hours):
 
Tides and Currents Weather Stations Pressure Air Temp Water Temp Dewpoint Dewpoint Depression Visibility Wind Speed Wind Dir Waves Ship Positions

Drifting buoy 46770

Last reported at 2014-Oct-30 20:30 UTC. Time now 2014-Oct-30 22:56 UTC.
Position N 53°37' E 170°26'.

Barometer 992.0 mb
Water temperature 7.9 ° C

Date/timePositionNaut miles runAvg speedWind from/ knotsBaromVisibWave heightAir tempDewpointWater temp
2014-Oct-30 20:30N 53°37' E 170°26'1 0.2 992.0 7.9
2014-Oct-30 17:30N 53°37' E 170°26'0 0.0 993.2 7.9
2014-Oct-30 16:30N 53°37' E 170°26'0 0.4 993.5 7.9
2014-Oct-30 15:30N 53°37' E 170°27'1 0.5 993.9 7.9
2014-Oct-30 13:30N 53°38' E 170°25'1 0.1 995.4 7.9
2014-Oct-30 08:30N 53°38' E 170°24'1 1.0 997.5 7.9
2014-Oct-30 07:30N 53°37' E 170°22'1 0.4 998.1 7.9
2014-Oct-30 03:30N 53°36' E 170°22'1 0.5 999.9 8.0
2014-Oct-30 01:30N 53°35' E 170°22'0 0.0 1001.9 8.0
2014-Oct-29 23:30N 53°35' E 170°22'1 0.6 1004.2 8.0
2014-Oct-29 21:30N 53°35' E 170°20'1 0.3 1005.4 8.0
2014-Oct-29 19:30N 53°35' E 170°19'1 0.4 1006.4 8.0
2014-Oct-29 16:30N 53°34' E 170°18'0 0.2 1006.5 8.0
2014-Oct-29 15:30N 53°34' E 170°18'0 0.0 1006.5 8.0
2014-Oct-29 08:30N 53°33' E 170°18'1 0.5 1005.2 8.0
2014-Oct-29 05:30N 53°33' E 170°16'3 1.3 1003.6 8.0
2014-Oct-29 03:30N 53°32' E 170°12'0 0.1 1002.4 8.0
2014-Oct-29 01:30N 53°31' E 170°12'3 0.7 1003.5 8.0
2014-Oct-28 21:30N 53°29' E 170°13'1 0.3 1009.8 8.0
2014-Oct-28 18:30N 53°28' E 170°14'2 1.7 1014.8 8.0
2014-Oct-28 17:30N 53°28' E 170°11'0 0.1 1015.8 8.0
2014-Oct-28 13:30N 53°28' E 170°10'3 0.7 1020.5 8.0
2014-Oct-28 08:30N 53°25' E 170°09'1 0.2 1025.2 8.0
2014-Oct-28 04:30N 53°24' E 170°09'1 0.4 1026.9 8.0
2014-Oct-28 02:30N 53°24' E 170°08'1 0.8 1026.6 8.0
2014-Oct-28 01:30N 53°23' E 170°07'1 0.4 1027.1 8.0
2014-Oct-27 23:30N 53°23' E 170°05'0 0.4 1027.7 8.0
2014-Oct-27 22:30N 53°23' E 170°06'3 1.0 1027.5 8.0
2014-Oct-27 19:30N 53°20' E 170°03'0 0.0 1026.7 8.0
2014-Oct-27 18:30N 53°20' E 170°03'0 0.3 1026.5 8.0
2014-Oct-27 17:30N 53°20' E 170°04'1 0.3 1026.3 8.0
2014-Oct-27 15:30N 53°19' E 170°04'0 0.0 1025.7 8.0
2014-Oct-27 13:30N 53°19' E 170°04'1 1.2 1025.3 8.0
2014-Oct-27 12:30N 53°18' E 170°03'0 0.0 1024.8 8.0
2014-Oct-27 10:30N 53°18' E 170°03'0 0.1 1024.1 8.0
2014-Oct-27 09:30N 53°18' E 170°03'2 0.8 1023.3 8.0
2014-Oct-27 06:30N 53°16' E 170°03'0 0.0 1020.5 8.0
2014-Oct-27 04:30N 53°16' E 170°03'0 0.1 1018.1 8.1
2014-Oct-26 22:30N 53°16' E 170°03'0 0.1 1013.1 8.1
2014-Oct-26 19:30N 53°16' E 170°03'1 0.5 1010.5 8.2
2014-Oct-26 17:30N 53°15' E 170°02'0 0.3 1010.5 8.2
2014-Oct-26 16:30N 53°15' E 170°02'1 0.9 1010.2 8.2
2014-Oct-26 15:30N 53°15' E 170°00'0 0.1 1010.2 8.2
2014-Oct-26 14:30N 53°15' E 170°00'3 0.9 1010.1 8.2
2014-Oct-26 10:30N 53°11' E 170°01'1 0.3 1009.6 8.3
2014-Oct-26 07:30N 53°11' E 170°03'0 0.1 1007.3 8.3
2014-Oct-26 03:30N 53°11' E 170°02'0 0.4 1001.4 8.4
2014-Oct-26 02:30N 53°11' E 170°03'1 0.9 1002.3 8.4
2014-Oct-26 01:30N 53°10' E 170°02'2 2.0 1003.7 8.4
2014-Oct-26 00:30N 53°09' E 169°59'2 0.4 1005.0 8.4
2014-Oct-25 19:30N 53°08' E 169°57'0 0.0 1009.8 8.4
2014-Oct-25 18:30N 53°08' E 169°57'1 0.9 1010.4 8.4
2014-Oct-25 17:30N 53°07' E 169°57'1 1.0 1011.2 8.4
2014-Oct-25 16:30N 53°06' E 169°58'1 0.3 1011.6 8.4
2014-Oct-25 12:30N 53°05' E 169°59'0 0.1 1014.1 8.4
2014-Oct-25 09:30N 53°05' E 169°59'0 0.3 1014.8 8.4
2014-Oct-25 08:30N 53°05' E 169°58'2 0.5 1014.8 8.4
2014-Oct-25 04:30N 53°03' E 169°57'2 1.0 1013.9 8.5
2014-Oct-25 02:30N 53°01' E 169°57'1 0.1 1013.4 8.5
2014-Oct-24 18:30N 53°01' E 169°59'0 0.0 1012.7 8.6
2014-Oct-24 17:30N 53°01' E 169°59'2 2.4 1012.6 8.6
2014-Oct-24 16:30N 52°58' E 169°58'0 0.0 1012.5 8.6
2014-Oct-24 14:30N 52°58' E 169°58'2 0.4 1013.3 8.6
2014-Oct-24 09:30N 52°58' E 170°02'0 0.0 1014.2 8.6
2014-Oct-24 08:30N 52°58' E 170°02'1 0.2 1014.3 8.5
2014-Oct-24 04:30N 52°58' E 170°00'1 0.5 1014.8 8.5
2014-Oct-24 02:30N 52°57' E 169°60'0 0.0 1015.2 8.6
2014-Oct-24 01:30N 52°57' E 169°60'1 0.4 1015.5 8.6
2014-Oct-23 22:30N 52°56' E 170°01'1 0.6 1016.3 8.6
2014-Oct-23 20:30N 52°55' E 170°02'0 0.1 1016.3 8.5
2014-Oct-23 15:30N 52°55' E 170°03'1 1.3 1015.7 8.6
2014-Oct-23 14:30N 52°55' E 170°05'1 0.6 1015.7 8.6
2014-Oct-23 13:30N 52°55' E 170°04'1 0.2 1015.6 8.6
2014-Oct-23 10:30N 52°55' E 170°04'4 2.0 1015.0 8.6
2014-Oct-23 08:30N 52°51' E 170°07'0 0.0 1014.1 8.7
2014-Oct-23 05:30N 52°51' E 170°07'1 0.3 1012.6 8.7
2014-Oct-23 01:30N 52°51' E 170°09'1 0.3 1010.8 8.7
2014-Oct-22 23:30N 52°52' E 170°09'0 0.0 1009.7 8.8
2014-Oct-22 22:30N 52°52' E 170°09'6 0.9 1009.1 8.8
2014-Oct-22 15:30N 52°46' E 170°07'0 0.0 1009.3 8.9
2014-Oct-22 13:30N 52°46' E 170°07'0 0.0 1011.2 8.9
2014-Oct-22 09:30N 52°46' E 170°07'0 0.0 1014.9 9.0
2014-Oct-22 08:30N 52°46' E 170°07'2 0.4 1015.1 9.0
2014-Oct-22 03:30N 52°44' E 170°06'1 0.4 1017.5 9.0
2014-Oct-22 00:30N 52°43' E 170°07'2 0.5 1018.6 9.0
2014-Oct-21 20:30N 52°41' E 170°09'1 0.2 1019.0 9.0
2014-Oct-21 17:30N 52°42' E 170°10'2 0.9 1019.7 9.0
2014-Oct-21 15:30N 52°42' E 170°07'3 0.6 1020.9 9.0
2014-Oct-21 09:30N 52°39' E 170°07'1 0.7 1023.3 9.0
2014-Oct-21 08:30N 52°38' E 170°08'1 0.3 1023.5 9.0
2014-Oct-21 05:30N 52°37' E 170°10'1 0.3 1023.0 9.2
2014-Oct-21 01:30N 52°38' E 170°11'0 0.0 1022.8 9.2
2014-Oct-20 23:30N 52°38' E 170°10'1 0.4 1022.7 9.0
2014-Oct-20 21:30N 52°38' E 170°10'   1022.1 9.0

Dump ship's entire track history